Time;durP1;ratioP1;P1;durP2;ratioP2;P2;SDS_P1;SDS_P2;PMS_P1;PMS_P2;Temp;Humidity;BMP_temperature;BMP_pressure;BME280_temperature;BME280_humidity;BME280_pressure;Samples;Min_cycle;Max_cycle;Signal;HPM_P1;HPM_P2
2022/09/24 05:29:17;;;;;;;7.15;1.35;;;16.30;77.60;;;;;;4827466;29;20212;-71
2022/09/24 05:31:42;;;;;;;5.70;1.00;;;16.30;77.50;;;;;;4827195;29;20129;-72
2022/09/24 05:34:08;;;;;;;7.03;1.38;;;16.30;77.40;;;;;;4827475;29;20116;-71
2022/09/24 05:36:35;;;;;;;7.47;1.27;;;16.30;77.30;;;;;;4827140;29;20085;-71
2022/09/24 05:39:01;;;;;;;6.03;1.42;;;16.40;77.20;;;;;;4826953;29;20055;-69
2022/09/24 05:41:26;;;;;;;8.18;1.30;;;16.40;77.00;;;;;;4826712;29;20050;-72
2022/09/24 05:43:52;;;;;;;6.15;1.42;;;16.40;76.90;;;;;;4834631;29;20111;-73
2022/09/24 05:46:18;;;;;;;17.15;2.17;;;16.40;76.90;;;;;;4845106;29;20468;-73
2022/09/24 05:48:44;;;;;;;12.02;1.73;;;16.40;76.90;;;;;;4845153;29;20127;-77
2022/09/24 05:51:09;;;;;;;8.32;1.50;;;16.40;76.90;;;;;;4829133;29;20077;-75
2022/09/24 05:53:35;;;;;;;10.13;1.50;;;16.50;76.90;;;;;;4838570;29;20064;-76
2022/09/24 05:56:01;;;;;;;16.75;2.25;;;16.50;77.00;;;;;;4826644;29;20450;-74
2022/09/24 05:58:26;;;;;;;15.25;1.85;;;16.50;76.70;;;;;;4827374;29;20107;-75
2022/09/24 06:00:52;;;;;;;11.95;1.80;;;16.50;76.20;;;;;;4828009;29;20349;-73
2022/09/24 06:03:19;;;;;;;14.25;2.03;;;16.50;75.90;;;;;;4827998;29;20548;-77
2022/09/24 06:05:47;;;;;;;15.85;1.60;;;16.50;76.00;;;;;;4826851;29;20058;-76
2022/09/24 06:08:18;;;;;;;11.65;1.88;;;16.40;75.90;;;;;;4826674;29;20050;-73
2022/09/24 06:10:46;;;;;;;11.93;2.13;;;16.40;75.90;;;;;;4809958;29;20050;-72
2022/09/24 06:13:13;;;;;;;12.18;1.65;;;16.40;76.20;;;;;;4841797;29;20150;-73
2022/09/24 06:15:41;;;;;;;11.50;1.75;;;16.40;76.40;;;;;;4844892;29;20449;-73
2022/09/24 06:18:07;;;;;;;9.65;1.58;;;16.40;76.60;;;;;;4845019;29;20056;-72
2022/09/24 06:20:33;;;;;;;10.77;1.58;;;16.40;76.60;;;;;;4844939;29;20054;-72
2022/09/24 06:22:59;;;;;;;6.57;1.05;;;16.40;76.70;;;;;;4844095;29;20502;-72
2022/09/24 06:25:26;;;;;;;8.45;1.45;;;16.40;76.70;;;;;;4826241;29;20434;-73
2022/09/24 06:27:59;;;;;;;7.05;1.00;;;16.50;76.70;;;;;;4826007;29;20062;-71
2022/09/24 06:30:37;;;;;;;8.68;1.48;;;16.50;76.70;;;;;;4810650;29;20058;-72
2022/09/24 06:33:08;;;;;;;5.53;1.33;;;16.50;76.60;;;;;;4826630;29;20056;-73
2022/09/24 06:35:42;;;;;;;8.25;1.25;;;16.50;76.70;;;;;;4810192;29;20131;-72
2022/09/24 06:38:10;;;;;;;7.72;1.27;;;16.50;76.60;;;;;;4826619;29;20055;-73
2022/09/24 06:40:37;;;;;;;9.13;1.45;;;16.50;76.70;;;;;;4826765;29;20489;-73
2022/09/24 06:43:05;;;;;;;7.97;1.10;;;16.50;76.70;;;;;;4826956;29;20340;-74
2022/09/24 06:45:31;;;;;;;9.73;1.00;;;16.60;76.60;;;;;;4826255;29;20149;-73
2022/09/24 06:47:58;;;;;;;9.13;1.08;;;16.60;76.50;;;;;;4826375;29;20129;-73
2022/09/24 06:50:27;;;;;;;7.72;1.55;;;16.60;76.50;;;;;;4826080;29;20069;-73
2022/09/24 06:52:54;;;;;;;6.22;1.27;;;16.60;76.40;;;;;;4826222;29;20054;-72
2022/09/24 06:55:20;;;;;;;9.00;1.60;;;16.60;76.40;;;;;;4844228;29;20473;-73
2022/09/24 06:57:46;;;;;;;8.18;1.48;;;16.60;76.40;;;;;;4828199;29;20050;-75
2022/09/24 07:00:14;;;;;;;4.90;0.95;;;16.60;76.30;;;;;;4841358;29;20058;-78
2022/09/24 07:02:42;;;;;;;9.18;1.77;;;16.60;76.20;;;;;;4825059;29;20101;-77
2022/09/24 07:05:09;;;;;;;8.98;1.23;;;16.60;76.30;;;;;;4794134;29;20155;-73
2022/09/24 08:03:31;;;;;;;16.55;1.83;;;17.10;75.90;;;;;;5211936;24;20062;-76
2022/09/24 08:05:58;;;;;;;11.52;1.55;;;17.20;76.20;;;;;;4828338;29;20055;-73
2022/09/24 08:08:24;;;;;;;15.85;1.90;;;17.30;76.30;;;;;;4828589;29;20068;-74
2022/09/24 08:10:51;;;;;;;25.35;2.67;;;17.40;76.40;;;;;;4827293;29;20050;-78
2022/09/24 08:13:17;;;;;;;18.88;1.95;;;17.60;76.20;;;;;;4828297;29;20089;-80
2022/09/24 08:15:43;;;;;;;16.60;2.08;;;17.70;75.70;;;;;;4812785;29;20046;-75
2022/09/24 08:18:09;;;;;;;8.75;1.17;;;17.80;75.20;;;;;;4828443;29;20496;-77
2022/09/24 08:20:36;;;;;;;14.80;2.08;;;17.90;74.70;;;;;;4812361;29;20137;-78
2022/09/24 08:23:04;;;;;;;11.57;1.85;;;18.10;74.30;;;;;;4828473;29;20093;-80
2022/09/24 08:25:31;;;;;;;13.93;2.33;;;18.20;73.90;;;;;;4812620;29;20493;-78
2022/09/24 08:28:07;;;;;;;14.40;2.05;;;18.40;73.60;;;;;;4827881;29;20137;-80
2022/09/24 08:30:34;;;;;;;11.85;1.98;;;18.50;73.00;;;;;;4827191;29;20195;-79
2022/09/24 08:33:00;;;;;;;11.88;1.90;;;18.70;72.60;;;;;;4811331;29;20458;-78
2022/09/24 08:35:26;;;;;;;15.40;2.47;;;18.70;72.50;;;;;;4812156;29;20114;-80
2022/09/24 08:37:55;;;;;;;14.70;1.75;;;18.80;72.60;;;;;;4828207;29;20038;-75
2022/09/24 08:40:26;;;;;;;11.13;1.95;;;18.80;72.10;;;;;;4828095;29;20093;-77
2022/09/24 08:43:08;;;;;;;10.88;1.50;;;18.80;71.70;;;;;;4827552;29;20050;-77
2022/09/24 08:48:32;;;;;;;12.85;2.13;;;18.70;71.60;;;;;;4820625;29;20067;-77
2022/09/24 08:51:07;;;;;;;11.15;1.70;;;18.70;72.20;;;;;;4812251;29;20046;-77
2022/09/24 08:53:54;;;;;;;11.68;1.50;;;18.60;72.20;;;;;;4827356;29;20469;-75
2022/09/24 08:56:31;;;;;;;7.40;1.48;;;18.50;72.20;;;;;;4827102;29;20419;-76
2022/09/24 08:59:04;;;;;;;7.97;1.38;;;18.40;72.80;;;;;;4827318;29;20101;-75
2022/09/24 09:02:07;;;;;;;9.38;1.35;;;18.30;73.20;;;;;;4827236;29;20478;-75
2022/09/24 09:04:59;;;;;;;9.50;1.50;;;18.20;73.80;;;;;;4826945;29;20073;-75
2022/09/24 09:07:31;;;;;;;12.43;1.25;;;18.20;73.90;;;;;;4827511;29;20726;-77
2022/09/24 09:10:06;;;;;;;10.60;1.40;;;18.20;73.60;;;;;;4811716;29;20050;-77
2022/09/24 09:12:44;;;;;;;10.63;1.42;;;18.10;73.30;;;;;;4827489;29;20120;-79
2022/09/24 09:15:30;;;;;;;17.98;2.10;;;18.10;72.80;;;;;;4827247;29;20066;-78
2022/09/24 09:18:05;;;;;;;8.55;1.77;;;18.00;72.30;;;;;;4827243;29;20122;-74
2022/09/24 09:20:37;;;;;;;13.68;1.33;;;18.00;73.20;;;;;;4827424;29;20050;-77
2022/09/24 09:23:16;;;;;;;10.85;1.20;;;18.00;73.70;;;;;;4827118;29;20118;-75
2022/09/24 09:25:51;;;;;;;11.80;1.45;;;18.00;73.90;;;;;;4827402;29;20047;-75
2022/09/24 09:28:18;;;;;;;12.50;2.00;;;17.90;73.90;;;;;;4824784;29;20054;-80
2022/09/24 09:31:22;;;;;;;12.55;1.90;;;17.90;73.80;;;;;;4794066;29;20042;-80
2022/09/24 09:33:59;;;;;;;9.73;1.07;;;18.00;73.20;;;;;;4826407;29;20043;-79
2022/09/24 09:36:44;;;;;;;8.45;1.20;;;18.00;73.20;;;;;;4825346;29;20054;-81
2022/09/24 09:39:32;;;;;;;7.03;1.33;;;17.90;73.30;;;;;;4826605;29;20053;-81
2022/09/24 09:42:25;;;;;;;7.68;1.38;;;17.90;74.00;;;;;;4811103;29;20058;-82
2022/09/24 09:44:51;;;;;;;8.07;1.27;;;17.90;73.50;;;;;;4810588;29;20062;-80
2022/09/24 09:47:40;;;;;;;6.95;1.13;;;17.90;73.60;;;;;;4810381;29;20356;-80
2022/09/24 09:50:20;;;;;;;6.97;1.00;;;17.90;73.60;;;;;;4810616;29;20146;-81
2022/09/24 09:52:46;;;;;;;6.70;1.02;;;17.90;73.70;;;;;;4826237;29;20434;-80
2022/09/24 09:55:24;;;;;;;9.00;1.23;;;17.90;73.80;;;;;;4810544;29;20058;-80
2022/09/24 09:57:50;;;;;;;7.50;1.13;;;17.90;73.80;;;;;;4810796;29;20061;-80
2022/09/24 10:00:32;;;;;;;4.85;0.57;;;17.80;73.90;;;;;;4810826;29;20061;-80
2022/09/24 10:02:58;;;;;;;8.70;1.02;;;17.90;73.90;;;;;;4810246;29;20216;-79
2022/09/24 10:05:27;;;;;;;6.20;0.80;;;17.90;74.00;;;;;;4792289;29;20507;-80
2022/09/24 10:07:56;;;;;;;7.57;1.50;;;17.80;74.00;;;;;;4807128;29;20069;-82
2022/09/24 10:10:24;;;;;;;3.70;0.95;;;17.90;74.00;;;;;;4807545;29;20421;-79
2022/09/24 10:13:06;;;;;;;3.28;0.63;;;17.90;74.00;;;;;;4810521;29;20057;-81
2022/09/24 10:15:32;;;;;;;4.93;0.93;;;17.90;74.00;;;;;;4810283;29;20050;-80
2022/09/24 10:17:59;;;;;;;4.40;0.63;;;17.90;74.10;;;;;;4809846;29;20452;-82
2022/09/24 10:20:32;;;;;;;6.05;1.63;;;17.90;74.10;;;;;;4795739;29;20065;-80
2022/09/24 10:23:19;;;;;;;5.35;0.80;;;17.90;74.10;;;;;;4810990;29;20065;-80
2022/09/24 10:25:53;;;;;;;3.75;0.63;;;17.90;74.10;;;;;;4825129;29;20050;-79
2022/09/24 10:31:13;;;;;;;5.03;1.02;;;17.90;74.10;;;;;;4810130;29;20050;-83
2022/09/24 10:33:43;;;;;;;4.38;1.05;;;17.90;74.00;;;;;;4825593;29;20461;-82
2022/09/24 10:36:23;;;;;;;6.10;1.50;;;17.90;74.00;;;;;;4810320;29;20050;-80
2022/09/24 10:39:00;;;;;;;3.65;0.70;;;17.90;73.90;;;;;;4810302;29;20065;-82
2022/09/24 10:41:30;;;;;;;3.78;0.50;;;17.90;73.90;;;;;;4810423;29;20054;-81
2022/09/24 10:44:01;;;;;;;4.25;0.95;;;17.90;73.90;;;;;;4809843;29;20082;-82
2022/09/24 10:46:55;;;;;;;3.92;0.68;;;17.90;73.90;;;;;;4809732;29;20054;-79
2022/09/24 10:49:42;;;;;;;2.42;0.50;;;17.90;73.80;;;;;;4824430;29;20050;-81
2022/09/24 10:52:30;;;;;;;3.95;0.93;;;17.90;73.80;;;;;;4809680;29;20054;-82
2022/09/24 10:55:01;;;;;;;4.43;1.10;;;17.90;73.80;;;;;;4825380;29;20074;-81
2022/09/24 10:57:40;;;;;;;3.20;1.00;;;17.90;73.80;;;;;;4809779;29;20367;-82
2022/09/24 11:00:19;;;;;;;2.03;0.30;;;17.90;73.80;;;;;;4825500;29;20097;-80
2022/09/24 11:03:13;;;;;;;4.55;0.98;;;17.90;73.80;;;;;;4825470;29;20062;-75
2022/09/24 11:06:03;;;;;;;4.20;0.70;;;17.90;73.80;;;;;;4825283;29;20153;-78
2022/09/24 11:08:41;;;;;;;4.95;0.55;;;17.90;73.80;;;;;;4824855;29;20062;-75
2022/09/24 11:11:15;;;;;;;8.30;1.02;;;17.90;73.80;;;;;;4826068;29;20053;-77
2022/09/24 11:13:58;;;;;;;8.07;1.58;;;18.00;73.70;;;;;;4824972;29;20093;-75
2022/09/24 11:16:52;;;;;;;4.97;0.55;;;18.00;73.70;;;;;;4822431;29;20057;-75
2022/09/24 11:19:48;;;;;;;6.13;1.13;;;18.00;73.60;;;;;;4809154;29;20048;-75
2022/09/24 11:22:53;;;;;;;8.75;1.60;;;17.90;73.60;;;;;;4816016;29;20121;-77
2022/09/24 11:25:46;;;;;;;4.50;0.80;;;18.00;73.70;;;;;;4823791;29;20055;-73
2022/09/24 11:28:15;;;;;;;2.92;0.60;;;17.90;73.70;;;;;;4829189;29;20381;-74
2022/09/24 11:31:06;;;;;;;4.75;0.85;;;17.90;73.90;;;;;;4822182;29;20054;-75
2022/09/24 11:33:56;;;;;;;5.93;0.70;;;17.90;73.90;;;;;;4825524;29;20360;-74
2022/09/24 11:36:47;;;;;;;6.32;1.05;;;17.90;74.00;;;;;;4825474;29;20112;-74
2022/09/24 11:39:40;;;;;;;5.30;0.70;;;17.90;74.00;;;;;;4823084;29;20058;-76
2022/09/24 11:42:15;;;;;;;4.53;0.60;;;17.90;74.00;;;;;;4813330;29;20058;-79
2022/09/24 11:44:56;;;;;;;12.88;2.15;;;17.90;74.00;;;;;;4828959;29;20054;-76
2022/09/24 11:47:25;;;;;;;9.13;1.52;;;17.90;74.00;;;;;;4828946;29;20099;-77
2022/09/24 11:50:10;;;;;;;11.63;1.40;;;17.90;73.10;;;;;;4829240;29;20134;-76
2022/09/24 11:52:42;;;;;;;11.77;1.67;;;17.90;72.60;;;;;;4828503;29;20078;-76
2022/09/24 11:55:39;;;;;;;9.00;0.82;;;17.90;72.20;;;;;;4832082;29;20437;-76
2022/09/24 11:58:22;;;;;;;10.63;1.10;;;17.90;72.20;;;;;;4842237;29;20050;-77
2022/09/24 12:01:05;;;;;;;16.48;1.45;;;17.90;72.70;;;;;;4847397;29;20057;-75
2022/09/24 12:03:55;;;;;;;7.65;0.93;;;17.90;71.50;;;;;;4846559;29;20057;-76
2022/09/24 12:06:36;;;;;;;9.18;1.15;;;17.90;71.30;;;;;;4847184;29;20141;-78
2022/09/24 12:09:34;;;;;;;6.78;0.80;;;17.90;70.80;;;;;;4846791;29;20132;-78
2022/09/24 12:12:13;;;;;;;10.60;1.13;;;17.90;70.40;;;;;;4831014;29;20093;-76
2022/09/24 12:14:54;;;;;;;4.88;0.68;;;17.90;70.20;;;;;;4847026;29;20422;-78
2022/09/24 12:17:32;;;;;;;15.35;1.40;;;17.90;70.80;;;;;;4834494;29;20126;-75
2022/09/24 12:20:05;;;;;;;9.35;0.90;;;17.90;71.00;;;;;;4812403;29;20046;-74
2022/09/24 12:22:34;;;;;;;4.88;0.75;;;17.80;70.80;;;;;;4828401;29;20050;-76
2022/09/24 12:25:00;;;;;;;5.05;1.13;;;17.80;70.50;;;;;;4827992;29;20130;-77
2022/09/24 12:27:45;;;;;;;6.85;0.95;;;17.90;69.80;;;;;;4828118;29;20050;-79
2022/09/24 12:33:26;;;;;;;4.22;0.80;;;17.80;69.70;;;;;;4826441;29;20062;-78
2022/09/24 12:36:03;;;;;;;6.97;0.68;;;17.80;70.40;;;;;;4828091;29;20054;-76
2022/09/24 12:38:34;;;;;;;5.20;0.60;;;17.80;70.80;;;;;;4828030;29;20051;-76
2022/09/24 12:41:21;;;;;;;6.97;1.08;;;17.90;71.00;;;;;;4828246;29;20378;-77
2022/09/24 12:43:50;;;;;;;4.03;0.55;;;17.90;70.50;;;;;;4828153;29;20062;-77
2022/09/24 12:46:23;;;;;;;8.25;1.25;;;17.90;70.10;;;;;;4828031;29;20050;-78
2022/09/24 12:48:51;;;;;;;9.13;0.80;;;17.90;70.20;;;;;;4827914;29;20366;-77
2022/09/24 12:51:21;;;;;;;7.07;0.82;;;17.90;70.50;;;;;;4826640;29;20047;-77
2022/09/24 12:54:20;;;;;;;6.18;0.85;;;17.90;70.70;;;;;;4828463;29;20050;-77
2022/09/24 12:56:46;;;;;;;3.40;0.70;;;17.90;70.60;;;;;;4787524;29;20501;-77
2022/09/24 12:59:26;;;;;;;3.42;0.57;;;17.90;70.50;;;;;;4827516;29;20043;-77
2022/09/24 13:01:53;;;;;;;8.80;0.93;;;17.90;70.30;;;;;;4808059;29;20050;-78
2022/09/24 13:04:18;;;;;;;8.90;1.45;;;17.90;70.00;;;;;;4796238;29;20133;-78
2022/09/24 13:06:46;;;;;;;10.68;1.48;;;17.90;69.50;;;;;;4827299;29;20125;-76
2022/09/24 13:09:34;;;;;;;7.28;1.77;;;17.90;69.40;;;;;;4827632;29;20129;-76
2022/09/24 13:12:20;;;;;;;8.68;1.15;;;18.00;69.80;;;;;;4828267;29;20054;-76
2022/09/24 13:15:00;;;;;;;9.20;0.90;;;17.90;70.10;;;;;;4827036;29;20466;-76
2022/09/24 13:17:26;;;;;;;8.98;1.00;;;17.90;70.30;;;;;;4796627;29;20107;-75
2022/09/24 13:20:24;;;;;;;11.30;1.15;;;17.90;70.60;;;;;;4828251;29;20058;-76
2022/09/24 13:23:18;;;;;;;15.77;1.85;;;17.90;70.80;;;;;;4827760;29;20120;-75
2022/09/24 13:25:55;;;;;;;12.65;1.10;;;17.90;70.60;;;;;;4817872;29;20120;-77
2022/09/24 13:28:26;;;;;;;16.95;2.05;;;17.90;70.70;;;;;;4827669;29;20137;-78
2022/09/24 13:31:05;;;;;;;9.45;1.25;;;18.00;70.70;;;;;;4811177;29;20066;-77
2022/09/24 13:33:38;;;;;;;11.15;1.50;;;17.90;70.70;;;;;;4827271;29;20054;-76
2022/09/24 13:36:42;;;;;;;14.57;1.35;;;18.00;70.80;;;;;;4826936;29;20455;-74
2022/09/24 13:39:44;;;;;;;11.52;1.67;;;18.00;70.80;;;;;;4824299;29;20065;-75
2022/09/24 13:42:13;;;;;;;7.07;1.60;;;18.00;70.80;;;;;;4827279;29;20058;-75
2022/09/24 13:44:57;;;;;;;8.63;1.25;;;18.00;70.90;;;;;;4826610;29;20050;-75
2022/09/24 13:47:44;;;;;;;5.47;1.20;;;18.00;71.00;;;;;;4826310;29;20119;-77
2022/09/24 13:50:21;;;;;;;8.55;1.15;;;17.90;70.70;;;;;;4826571;29;20058;-77
2022/09/24 13:52:56;;;;;;;10.70;1.55;;;18.00;70.70;;;;;;4827024;29;20047;-75
2022/09/24 13:55:22;;;;;;;14.65;1.63;;;18.00;70.20;;;;;;4826704;29;20054;-75
2022/09/24 13:57:49;;;;;;;10.30;1.23;;;18.00;70.00;;;;;;4826903;29;20347;-74
2022/09/24 14:00:19;;;;;;;16.52;1.48;;;18.00;69.70;;;;;;4826458;29;20123;-75
2022/09/24 14:03:03;;;;;;;10.52;1.38;;;18.00;69.80;;;;;;4826083;29;20050;-75
2022/09/24 14:05:36;;;;;;;12.85;1.33;;;18.00;70.20;;;;;;4827025;29;20081;-75
2022/09/24 14:08:15;;;;;;;14.27;1.00;;;18.00;70.50;;;;;;4810385;29;20097;-75
2022/09/24 14:10:42;;;;;;;10.50;1.35;;;18.00;70.30;;;;;;4826887;29;20057;-75
2022/09/24 14:13:22;;;;;;;9.35;1.08;;;18.00;70.10;;;;;;4827141;29;20362;-76
2022/09/24 14:15:58;;;;;;;8.43;1.10;;;18.00;69.80;;;;;;4826735;29;20081;-75
2022/09/24 14:18:26;;;;;;;12.07;1.95;;;18.00;69.90;;;;;;4826490;29;20061;-76
2022/09/24 14:21:06;;;;;;;6.97;1.08;;;18.00;69.80;;;;;;4825993;29;20128;-76
2022/09/24 14:24:02;;;;;;;10.52;1.77;;;18.00;69.80;;;;;;4826675;29;20068;-75
2022/09/24 14:26:30;;;;;;;19.23;1.75;;;18.00;69.60;;;;;;4826341;29;20132;-74
2022/09/24 14:28:59;;;;;;;15.82;1.65;;;18.00;69.10;;;;;;4826191;29;20356;-77
2022/09/24 14:31:24;;;;;;;10.15;1.35;;;18.00;68.50;;;;;;4810139;29;20090;-77
2022/09/24 14:33:51;;;;;;;12.65;1.42;;;18.00;68.50;;;;;;4826455;29;20105;-77
2022/09/24 14:36:19;;;;;;;7.13;0.93;;;18.00;68.00;;;;;;4826413;29;20046;-78
2022/09/24 14:39:02;;;;;;;8.52;0.88;;;18.00;68.20;;;;;;4826461;29;20086;-78
2022/09/24 14:41:32;;;;;;;13.90;1.10;;;18.00;68.20;;;;;;4826038;29;20059;-78
2022/09/24 14:44:06;;;;;;;9.63;1.70;;;18.00;68.60;;;;;;4826046;29;20454;-77
2022/09/24 14:46:42;;;;;;;8.52;1.25;;;18.00;69.00;;;;;;4826823;29;20057;-78
2022/09/24 14:49:20;;;;;;;9.02;1.13;;;18.00;69.30;;;;;;4826405;29;20116;-77
2022/09/24 14:52:03;;;;;;;8.70;1.73;;;18.00;69.40;;;;;;4826617;29;20143;-78
2022/09/24 14:54:36;;;;;;;5.75;0.70;;;18.00;69.60;;;;;;4826658;29;20051;-77
2022/09/24 14:57:17;;;;;;;5.40;0.90;;;18.00;69.70;;;;;;4826124;29;20051;-77
2022/09/24 14:59:45;;;;;;;9.70;1.15;;;18.00;69.80;;;;;;4826342;29;20050;-78
2022/09/24 15:02:16;;;;;;;3.88;0.82;;;18.00;69.90;;;;;;4825526;29;20046;-77
2022/09/24 15:05:03;;;;;;;7.55;1.55;;;18.00;70.00;;;;;;4826367;29;20066;-78
2022/09/24 15:07:30;;;;;;;3.83;0.65;;;18.00;70.00;;;;;;4826348;29;20066;-78
2022/09/24 15:10:01;;;;;;;3.28;0.73;;;18.00;70.10;;;;;;4826216;29;20077;-77
2022/09/24 15:12:32;;;;;;;5.88;1.23;;;18.00;70.10;;;;;;4826174;29;20115;-76
2022/09/24 15:15:01;;;;;;;9.50;1.90;;;18.00;70.10;;;;;;4829176;29;20096;-77
2022/09/24 15:17:36;;;;;;;7.18;1.15;;;18.00;69.80;;;;;;4814056;29;20054;-75
2022/09/24 15:20:03;;;;;;;4.78;0.85;;;18.00;69.70;;;;;;4830003;29;20047;-74
2022/09/24 15:22:30;;;;;;;8.93;0.90;;;18.00;69.00;;;;;;4829314;29;20432;-79
2022/09/24 15:24:57;;;;;;;11.73;1.52;;;18.00;69.00;;;;;;4829502;29;20054;-71
2022/09/24 15:27:28;;;;;;;9.40;1.00;;;18.00;69.20;;;;;;4829214;29;20340;-78
2022/09/24 15:29:58;;;;;;;5.80;0.95;;;18.00;69.50;;;;;;4829166;29;20050;-78
2022/09/24 15:32:29;;;;;;;8.57;0.82;;;18.00;68.60;;;;;;4798767;29;20054;-76
2022/09/24 15:34:56;;;;;;;5.75;0.93;;;18.00;69.00;;;;;;4828620;29;20070;-76
2022/09/24 15:37:24;;;;;;;4.78;0.98;;;18.00;68.90;;;;;;4828592;29;20046;-79
2022/09/24 15:39:52;;;;;;;10.55;1.00;;;18.00;69.20;;;;;;4828781;29;20100;-76
2022/09/24 15:42:23;;;;;;;7.72;1.00;;;18.00;69.00;;;;;;4828870;29;20058;-73
2022/09/24 15:44:53;;;;;;;7.78;1.00;;;18.10;68.90;;;;;;4813026;29;20062;-77
2022/09/24 15:47:19;;;;;;;6.63;1.17;;;18.10;68.50;;;;;;4813217;29;20335;-73
2022/09/24 15:49:45;;;;;;;7.75;1.80;;;18.00;67.90;;;;;;4829005;29;20034;-73
2022/09/24 15:52:23;;;;;;;5.25;0.80;;;18.00;67.90;;;;;;4828925;29;20507;-76
2022/09/24 15:54:54;;;;;;;6.55;1.20;;;17.90;66.90;;;;;;4829004;29;20058;-79
2022/09/24 15:57:21;;;;;;;4.35;0.85;;;17.80;66.60;;;;;;4812908;29;20054;-75
2022/09/24 15:59:48;;;;;;;4.72;0.77;;;17.80;65.70;;;;;;4828722;29;20529;-79
2022/09/24 16:02:23;;;;;;;8.13;1.00;;;17.80;65.80;;;;;;4828458;29;20102;-77
2022/09/24 16:04:49;;;;;;;8.23;1.08;;;17.70;66.30;;;;;;4828960;29;20066;-73
2022/09/24 16:07:17;;;;;;;7.03;1.30;;;17.70;66.60;;;;;;4812440;29;20066;-74
2022/09/24 16:09:43;;;;;;;7.88;0.95;;;17.70;67.80;;;;;;4828942;29;20193;-73
2022/09/24 16:12:17;;;;;;;11.93;1.35;;;17.70;68.70;;;;;;4829208;29;20065;-74
2022/09/24 16:14:43;;;;;;;9.65;0.80;;;17.70;69.40;;;;;;4828681;29;20118;-73
2022/09/24 16:17:09;;;;;;;13.63;1.35;;;17.80;70.00;;;;;;4829197;29;20046;-73
2022/09/24 16:19:36;;;;;;;5.43;0.80;;;17.80;70.40;;;;;;4828485;29;20438;-73
2022/09/24 16:22:02;;;;;;;7.15;1.25;;;17.80;70.80;;;;;;4828661;29;20352;-74
2022/09/24 16:24:31;;;;;;;7.20;1.02;;;17.80;71.10;;;;;;4827812;29;20050;-73
2022/09/24 16:26:58;;;;;;;9.07;0.80;;;17.90;71.30;;;;;;4828060;29;20054;-73
2022/09/24 16:29:24;;;;;;;8.48;0.95;;;17.90;71.40;;;;;;4828456;29;20061;-74
2022/09/24 16:31:50;;;;;;;10.20;1.13;;;17.90;71.20;;;;;;4828481;29;20051;-74
2022/09/24 16:34:15;;;;;;;9.73;1.15;;;17.90;70.90;;;;;;4828071;29;20099;-75
2022/09/24 16:36:41;;;;;;;7.20;0.80;;;17.90;71.40;;;;;;4828445;29;20058;-74
2022/09/24 16:39:07;;;;;;;8.30;0.93;;;17.90;70.90;;;;;;4812271;29;20050;-75
2022/09/24 16:41:33;;;;;;;8.70;1.00;;;18.00;70.40;;;;;;4828205;29;20441;-73
2022/09/24 16:44:03;;;;;;;9.25;0.98;;;17.90;69.40;;;;;;4828403;29;20459;-74
2022/09/24 16:46:30;;;;;;;5.47;0.70;;;17.90;69.00;;;;;;4827090;29;20481;-73
2022/09/24 16:48:55;;;;;;;11.05;0.98;;;17.90;69.20;;;;;;4828045;29;20127;-74
2022/09/24 16:51:22;;;;;;;16.65;1.50;;;18.00;69.30;;;;;;4828063;29;20466;-76
2022/09/24 16:53:53;;;;;;;17.15;1.75;;;17.90;68.90;;;;;;4827366;29;20127;-76
2022/09/24 16:56:19;;;;;;;11.30;2.00;;;18.00;68.60;;;;;;4820223;29;20445;-74
2022/09/24 16:58:46;;;;;;;17.63;2.05;;;18.00;68.50;;;;;;4822910;29;20042;-73
2022/09/24 17:01:14;;;;;;;20.55;2.15;;;18.00;68.40;;;;;;4825702;29;20366;-72
2022/09/24 17:03:41;;;;;;;23.73;2.80;;;18.00;68.30;;;;;;4827232;29;20059;-73
2022/09/24 17:06:07;;;;;;;17.52;1.73;;;18.00;68.20;;;;;;4826928;29;20139;-73
2022/09/24 17:11:21;;;;;;;13.88;1.88;;;18.00;68.50;;;;;;4826976;29;20047;-72
2022/09/24 17:13:47;;;;;;;12.95;1.63;;;18.00;68.40;;;;;;4827392;29;20046;-72
2022/09/24 17:16:14;;;;;;;11.07;1.30;;;18.00;68.60;;;;;;4827512;29;20069;-73
2022/09/24 17:18:40;;;;;;;13.52;1.27;;;18.00;68.60;;;;;;4827537;29;20164;-73
2022/09/24 17:21:10;;;;;;;11.52;1.38;;;18.00;68.60;;;;;;4827069;29;20382;-72
2022/09/24 17:23:36;;;;;;;28.20;2.30;;;18.10;68.70;;;;;;4827534;29;20054;-72
2022/09/24 17:26:07;;;;;;;13.95;1.67;;;18.10;68.90;;;;;;4827939;29;20376;-73
2022/09/24 17:28:34;;;;;;;12.75;1.65;;;18.10;69.00;;;;;;4827194;29;20046;-72
2022/09/24 17:31:00;;;;;;;11.80;1.27;;;18.10;69.00;;;;;;4827103;29;20081;-72
2022/09/24 17:33:27;;;;;;;8.27;1.17;;;18.10;69.00;;;;;;4828021;29;20054;-72
2022/09/24 17:35:59;;;;;;;14.73;1.98;;;18.10;69.00;;;;;;4827107;29;20059;-72
2022/09/24 17:38:26;;;;;;;13.88;1.92;;;18.10;69.00;;;;;;4827326;29;20361;-72
2022/09/24 17:40:56;;;;;;;13.93;2.28;;;18.10;69.00;;;;;;4826499;29;20085;-73
2022/09/24 17:43:22;;;;;;;8.68;1.08;;;18.10;69.00;;;;;;4827181;29;20145;-74
2022/09/24 17:46:05;;;;;;;8.45;1.13;;;18.10;68.80;;;;;;4827187;29;20046;-75
2022/09/24 17:48:37;;;;;;;7.63;1.10;;;18.10;68.50;;;;;;4826453;29;20054;-72
2022/09/24 17:51:06;;;;;;;8.35;1.13;;;18.10;68.20;;;;;;4826946;29;20482;-73
2022/09/24 17:53:34;;;;;;;13.95;1.98;;;18.10;68.00;;;;;;4826900;29;20051;-73
2022/09/24 17:56:00;;;;;;;4.75;1.13;;;18.10;67.90;;;;;;4826979;29;20343;-73
2022/09/24 17:58:26;;;;;;;10.10;1.20;;;18.10;67.90;;;;;;4827073;29;20141;-74
2022/09/24 18:00:53;;;;;;;9.68;1.67;;;18.10;68.50;;;;;;4826229;29;20057;-73
2022/09/24 18:03:19;;;;;;;3.40;0.88;;;18.10;68.00;;;;;;4825427;29;20047;-73
2022/09/24 18:05:46;;;;;;;8.65;1.13;;;18.10;67.90;;;;;;4826269;29;20050;-71
2022/09/24 18:08:12;;;;;;;6.43;1.45;;;18.10;67.90;;;;;;4826297;29;20125;-74
2022/09/24 18:10:38;;;;;;;13.88;1.13;;;18.00;67.90;;;;;;4826060;29;20466;-79
2022/09/24 18:13:05;;;;;;;4.95;0.80;;;18.10;67.60;;;;;;4805851;29;20069;-75
2022/09/24 18:15:35;;;;;;;4.28;0.68;;;18.00;67.10;;;;;;4826594;29;20466;-76
2022/09/24 18:18:01;;;;;;;4.85;1.13;;;18.00;66.70;;;;;;4826711;29;20127;-77
2022/09/24 18:20:27;;;;;;;4.07;1.15;;;17.90;66.40;;;;;;4826741;29;20058;-77
2022/09/24 18:22:53;;;;;;;7.47;1.60;;;17.90;66.30;;;;;;4826298;29;20051;-75
2022/09/24 18:25:20;;;;;;;8.55;1.35;;;17.90;66.10;;;;;;4827114;29;20115;-73
2022/09/24 18:27:45;;;;;;;8.13;1.02;;;17.80;66.10;;;;;;4826566;29;20050;-73
2022/09/24 18:30:12;;;;;;;4.68;1.52;;;17.80;66.10;;;;;;4826050;29;20046;-72
2022/09/24 19:37:39;;;;;;;5.80;1.00;;;17.90;68.50;;;;;;4818444;29;20058;-76
2022/09/24 19:40:05;;;;;;;3.95;0.65;;;17.90;68.70;;;;;;4814241;29;20061;-78
2022/09/24 19:42:31;;;;;;;7.03;1.10;;;17.90;68.90;;;;;;4825261;29;20056;-78
2022/09/24 19:44:57;;;;;;;7.72;1.20;;;17.80;69.00;;;;;;4803981;29;20047;-77
2022/09/24 19:47:24;;;;;;;2.97;0.60;;;17.80;69.20;;;;;;4807387;29;20062;-77
2022/09/24 19:49:50;;;;;;;4.95;1.20;;;17.90;69.50;;;;;;4807661;29;20051;-78
2022/09/24 19:52:15;;;;;;;7.40;0.98;;;17.90;69.70;;;;;;4806465;29;20457;-80
2022/09/24 19:54:43;;;;;;;5.38;0.73;;;17.90;69.80;;;;;;4807701;29;20050;-78
2022/09/24 19:57:09;;;;;;;2.72;0.57;;;17.90;69.60;;;;;;4813045;29;20057;-78
2022/09/24 19:59:35;;;;;;;4.50;0.95;;;17.90;69.40;;;;;;4826383;29;20354;-76
2022/09/24 20:02:01;;;;;;;3.95;0.75;;;17.90;69.40;;;;;;4822087;29;20120;-78
2022/09/24 20:04:34;;;;;;;11.88;1.58;;;17.90;69.50;;;;;;4813071;29;20089;-78
2022/09/24 20:07:00;;;;;;;7.53;1.00;;;17.90;69.50;;;;;;4797573;29;20043;-76
2022/09/24 20:09:25;;;;;;;3.13;0.43;;;17.90;69.80;;;;;;4828674;29;20583;-78
2022/09/24 20:11:51;;;;;;;8.25;1.02;;;17.90;69.60;;;;;;4826968;29;22190;-77
2022/09/24 20:14:19;;;;;;;9.10;0.95;;;17.90;69.50;;;;;;4818028;29;20042;-76
2022/09/24 20:16:45;;;;;;;6.50;0.70;;;17.90;69.60;;;;;;4828772;29;20057;-77
2022/09/24 20:19:11;;;;;;;6.78;1.25;;;17.90;69.60;;;;;;4828626;29;20122;-77
2022/09/24 20:21:37;;;;;;;8.93;1.27;;;17.90;69.80;;;;;;4828413;29;20062;-76
2022/09/24 20:24:05;;;;;;;4.15;1.02;;;17.90;70.00;;;;;;4828602;29;20050;-77
2022/09/24 20:29:20;;;;;;;8.52;0.88;;;17.90;70.50;;;;;;4828019;29;20050;-77
2022/09/24 20:31:52;;;;;;;3.28;0.60;;;17.90;70.60;;;;;;4828288;29;20066;-78
2022/09/24 20:34:20;;;;;;;3.55;0.63;;;17.90;70.70;;;;;;4828137;29;20461;-78
2022/09/24 20:36:45;;;;;;;2.35;0.50;;;17.90;70.80;;;;;;4827886;29;20092;-77
2022/09/24 20:39:11;;;;;;;3.42;0.50;;;17.90;70.70;;;;;;4827553;29;20086;-77
2022/09/24 20:41:37;;;;;;;3.35;0.40;;;17.90;70.70;;;;;;4838740;29;20136;-77
2022/09/24 20:44:03;;;;;;;4.05;0.50;;;17.90;70.70;;;;;;4814902;29;20047;-78
2022/09/24 20:46:29;;;;;;;4.43;1.13;;;17.90;70.80;;;;;;4843236;29;20098;-78
2022/09/24 20:48:59;;;;;;;3.55;0.50;;;17.90;70.90;;;;;;4840007;29;20124;-77
2022/09/24 20:51:29;;;;;;;2.58;0.50;;;17.90;70.90;;;;;;4827957;29;20050;-76
2022/09/24 20:53:56;;;;;;;5.00;0.57;;;17.90;71.00;;;;;;4827172;29;20054;-76